Time;durP1;ratioP1;P1;durP2;ratioP2;P2;SDS_P1;SDS_P2;PMS_P1;PMS_P2;Temp;Humidity;BMP_temperature;BMP_pressure;BME280_temperature;BME280_humidity;BME280_pressure;Samples;Min_cycle;Max_cycle;Signal;HPM_P1;HPM_P2
2023/12/08 00:00:45;;;;;;;9.85;8.20;;;;;3.30;97767.00;;;;5035589;28;20120;-62
2023/12/08 00:03:13;;;;;;;9.98;7.20;;;;;3.40;97766.00;;;;5035556;28;20544;-62
2023/12/08 00:05:39;;;;;;;10.57;7.25;;;;;3.30;97760.00;;;;5035057;28;20073;-63
2023/12/08 00:08:06;;;;;;;13.25;7.95;;;;;3.40;97762.00;;;;5035483;28;20106;-61
2023/12/08 00:10:33;;;;;;;12.95;7.78;;;;;3.30;97756.00;;;;5035516;28;20108;-62
2023/12/08 00:12:59;;;;;;;11.15;7.38;;;;;3.30;97761.00;;;;5035478;28;20056;-62
2023/12/08 00:15:26;;;;;;;13.50;7.57;;;;;3.30;97767.00;;;;5034713;28;20429;-63
2023/12/08 00:17:52;;;;;;;11.15;7.50;;;;;3.30;97770.00;;;;5034906;28;20125;-64
2023/12/08 00:20:19;;;;;;;12.05;7.97;;;;;3.30;97762.00;;;;5034784;28;20055;-64
2023/12/08 00:22:46;;;;;;;12.45;7.32;;;;;3.30;97757.00;;;;5034526;28;20088;-64
2023/12/08 00:25:12;;;;;;;11.75;7.53;;;;;3.30;97750.00;;;;5032665;28;20041;-64
2023/12/08 00:27:39;;;;;;;10.93;7.65;;;;;3.30;97754.00;;;;5034653;28;20053;-64
2023/12/08 00:30:06;;;;;;;11.77;7.60;;;;;3.20;97765.00;;;;5034666;28;20048;-64
2023/12/08 00:32:33;;;;;;;12.90;7.93;;;;;3.30;97760.00;;;;5034364;28;20060;-64
2023/12/08 00:35:00;;;;;;;13.30;7.20;;;;;3.20;97759.00;;;;5033780;28;20049;-64
2023/12/08 00:37:27;;;;;;;8.93;6.65;;;;;3.30;97757.00;;;;5034269;28;20457;-64
2023/12/08 00:39:54;;;;;;;11.20;7.15;;;;;3.30;97759.00;;;;5034460;28;20568;-64
2023/12/08 00:42:21;;;;;;;12.25;7.72;;;;;3.30;97759.00;;;;5034455;28;20465;-64
2023/12/08 00:44:47;;;;;;;12.23;7.38;;;;;3.30;97765.00;;;;5033553;28;20445;-64
2023/12/08 00:47:14;;;;;;;12.70;8.15;;;;;3.40;97756.00;;;;5034189;28;20059;-65
2023/12/08 00:49:40;;;;;;;11.10;7.30;;;;;3.30;97762.00;;;;5034103;28;20043;-63
2023/12/08 00:52:07;;;;;;;10.23;7.22;;;;;3.30;97761.00;;;;5034239;28;20067;-64
2023/12/08 00:54:34;;;;;;;12.32;7.38;;;;;3.30;97749.00;;;;5033449;28;20485;-65
2023/12/08 00:57:01;;;;;;;11.50;7.50;;;;;3.30;97759.00;;;;5033965;28;20080;-65
2023/12/08 00:59:27;;;;;;;13.10;7.93;;;;;3.40;97753.00;;;;5034005;28;20068;-64
2023/12/08 01:01:54;;;;;;;9.93;7.40;;;;;3.40;97753.00;;;;5033977;28;20045;-64
2023/12/08 01:04:20;;;;;;;10.23;7.72;;;;;3.40;97750.00;;;;5033307;28;20042;-64
2023/12/08 01:06:47;;;;;;;10.05;7.68;;;;;3.40;97741.00;;;;5033734;28;20041;-63
2023/12/08 01:09:14;;;;;;;11.25;7.28;;;;;3.40;97748.00;;;;5033699;28;20073;-63
2023/12/08 01:11:42;;;;;;;13.68;7.47;;;;;3.40;97744.00;;;;5033761;28;20124;-63
2023/12/08 01:14:09;;;;;;;11.38;7.18;;;;;3.50;97745.00;;;;5033253;28;20033;-61
2023/12/08 01:16:42;;;;;;;9.82;6.95;;;;;3.50;97740.00;;;;5032793;28;20417;-62
2023/12/08 01:19:10;;;;;;;10.73;7.53;;;;;3.40;97743.00;;;;5033738;28;20688;-61
2023/12/08 01:21:38;;;;;;;10.55;7.38;;;;;3.40;97738.00;;;;5032192;28;20068;-61
2023/12/08 01:24:05;;;;;;;9.10;6.88;;;;;3.40;97750.00;;;;5031571;28;20051;-64
2023/12/08 01:26:32;;;;;;;11.40;7.45;;;;;3.40;97758.00;;;;5033038;28;20041;-61
2023/12/08 01:28:59;;;;;;;8.80;6.68;;;;;3.40;97749.00;;;;5033524;28;20042;-62
2023/12/08 01:31:26;;;;;;;10.40;7.22;;;;;3.40;97762.00;;;;5033305;28;20494;-62
2023/12/08 01:33:52;;;;;;;10.55;7.95;;;;;3.40;97762.00;;;;5032662;28;20068;-62
2023/12/08 01:36:19;;;;;;;9.48;7.75;;;;;3.40;97776.00;;;;5032086;28;20045;-62
2023/12/08 01:39:06;;;;;;;9.20;7.18;;;;;3.50;97772.00;;;;5033467;28;20045;-60
2023/12/08 01:41:33;;;;;;;9.00;6.57;;;;;3.50;97767.00;;;;5033360;28;20519;-61
2023/12/08 01:43:59;;;;;;;11.90;7.80;;;;;3.50;97771.00;;;;5032595;28;20051;-62
2023/12/08 01:46:29;;;;;;;9.90;6.97;;;;;3.60;97777.00;;;;5033153;28;20037;-63
2023/12/08 01:48:57;;;;;;;10.35;7.40;;;;;3.70;97775.00;;;;5033152;28;20049;-62
2023/12/08 01:51:25;;;;;;;11.95;7.90;;;;;3.80;97771.00;;;;5031867;28;20049;-63
2023/12/08 01:53:51;;;;;;;11.43;7.40;;;;;3.70;97775.00;;;;5032458;28;20041;-62
2023/12/08 01:56:18;;;;;;;11.52;6.90;;;;;3.70;97772.00;;;;5031727;28;20046;-62
2023/12/08 01:58:45;;;;;;;10.68;7.53;;;;;3.70;97767.00;;;;5032908;28;20045;-62
2023/12/08 02:01:12;;;;;;;9.93;7.20;;;;;3.70;97770.00;;;;5032846;28;20053;-62
2023/12/08 02:03:40;;;;;;;8.68;6.82;;;;;3.70;97771.00;;;;5032416;28;20052;-62
2023/12/08 02:06:07;;;;;;;9.13;6.57;;;;;3.70;97770.00;;;;5032261;28;20044;-62
2023/12/08 02:08:35;;;;;;;9.48;7.07;;;;;3.70;97771.00;;;;5031779;28;20430;-61
2023/12/08 02:11:01;;;;;;;9.35;7.00;;;;;3.70;97762.00;;;;5032909;28;20041;-62
2023/12/08 02:13:28;;;;;;;10.70;7.47;;;;;3.70;97765.00;;;;5032486;28;20422;-62
2023/12/08 02:16:06;;;;;;;10.40;7.30;;;;;3.70;97770.00;;;;5031347;28;20042;-62
2023/12/08 02:18:34;;;;;;;10.93;6.70;;;;;3.80;97762.00;;;;5032641;28;20120;-62
2023/12/08 02:21:01;;;;;;;10.65;7.15;;;;;3.90;97761.00;;;;5032421;28;20048;-62
2023/12/08 02:23:28;;;;;;;9.77;7.45;;;;;4.00;97751.00;;;;5031982;28;20046;-62
2023/12/08 02:25:55;;;;;;;8.40;6.22;;;;;4.00;97755.00;;;;5032581;28;20050;-61
2023/12/08 02:28:21;;;;;;;9.90;6.72;;;;;3.90;97755.00;;;;5031225;28;20469;-63
2023/12/08 02:30:50;;;;;;;8.30;6.15;;;;;3.80;97746.00;;;;5031143;28;20057;-62
2023/12/08 02:33:32;;;;;;;9.00;6.75;;;;;3.80;97743.00;;;;5031245;28;20045;-62
2023/12/08 02:36:01;;;;;;;7.85;6.40;;;;;3.90;97747.00;;;;5031259;28;20049;-61
2023/12/08 02:38:31;;;;;;;8.43;6.68;;;;;3.80;97737.00;;;;5031460;28;20037;-62
2023/12/08 02:40:58;;;;;;;11.80;6.32;;;;;3.80;97741.00;;;;5032253;28;20494;-62
2023/12/08 02:43:25;;;;;;;9.38;6.85;;;;;3.70;97732.00;;;;5031654;28;20139;-61
2023/12/08 02:45:51;;;;;;;10.32;7.32;;;;;3.80;97744.00;;;;5031992;28;20696;-62
2023/12/08 02:48:18;;;;;;;9.30;7.43;;;;;3.90;97740.00;;;;5032167;28;20041;-62
2023/12/08 02:50:45;;;;;;;10.52;7.18;;;;;3.70;97734.00;;;;5032204;28;20120;-62
2023/12/08 02:53:12;;;;;;;9.68;7.13;;;;;3.70;97726.00;;;;5031943;28;20520;-63
2023/12/08 02:55:39;;;;;;;10.23;6.50;;;;;3.70;97722.00;;;;5031355;28;20041;-62
2023/12/08 02:58:05;;;;;;;13.38;7.43;;;;;3.70;97721.00;;;;5032168;28;20494;-61
2023/12/08 03:00:32;;;;;;;9.80;7.07;;;;;3.70;97715.00;;;;5032081;28;20046;-64
2023/12/08 03:02:58;;;;;;;12.27;7.18;;;;;3.70;97718.00;;;;5031943;28;20041;-64
2023/12/08 03:05:25;;;;;;;13.57;7.38;;;;;3.70;97700.00;;;;5031119;28;20038;-64
2023/12/08 03:07:52;;;;;;;9.52;7.43;;;;;3.60;97693.00;;;;5031824;28;20418;-64
2023/12/08 03:10:19;;;;;;;10.52;7.25;;;;;3.60;97675.00;;;;5030739;28;20054;-64
2023/12/08 03:12:46;;;;;;;10.90;7.72;;;;;3.60;97672.00;;;;5032317;28;20107;-64
2023/12/08 03:15:12;;;;;;;9.32;7.05;;;;;3.60;97674.00;;;;5031770;28;20045;-64
2023/12/08 03:17:39;;;;;;;15.45;7.40;;;;;3.60;97670.00;;;;5032066;28;20037;-64
2023/12/08 03:20:06;;;;;;;9.38;6.68;;;;;3.60;97665.00;;;;5031999;28;20045;-64
2023/12/08 03:22:32;;;;;;;11.25;7.28;;;;;3.60;97650.00;;;;5031597;28;20688;-64
2023/12/08 03:24:59;;;;;;;11.20;7.68;;;;;3.60;97646.00;;;;5031565;28;20045;-63
2023/12/08 03:27:26;;;;;;;9.27;7.60;;;;;3.60;97639.00;;;;5032186;28;20080;-64
2023/12/08 03:29:53;;;;;;;11.05;7.75;;;;;3.60;97634.00;;;;5032332;28;20055;-64
2023/12/08 03:32:19;;;;;;;12.77;7.13;;;;;3.60;97640.00;;;;5032593;28;20052;-64
2023/12/08 03:34:46;;;;;;;10.73;7.40;;;;;3.60;97633.00;;;;5031810;28;20056;-64
2023/12/08 03:37:12;;;;;;;11.50;7.03;;;;;3.60;97641.00;;;;5031853;28;20132;-64
2023/12/08 03:39:39;;;;;;;10.23;6.78;;;;;3.60;97637.00;;;;5032495;28;20046;-63
2023/12/08 03:42:06;;;;;;;8.98;6.78;;;;;3.60;97636.00;;;;5032737;28;20046;-61
2023/12/08 03:44:32;;;;;;;12.13;7.60;;;;;3.60;97639.00;;;;5031571;28;20080;-61
2023/12/08 03:46:59;;;;;;;9.68;6.78;;;;;3.60;97636.00;;;;5031747;28;20041;-60
2023/12/08 03:49:26;;;;;;;10.35;7.55;;;;;3.60;97642.00;;;;5031826;28;20516;-61
2023/12/08 03:51:52;;;;;;;8.80;7.03;;;;;3.60;97630.00;;;;5034591;28;20120;-60
2023/12/08 03:54:19;;;;;;;11.60;7.65;;;;;3.60;97637.00;;;;5034936;28;20072;-60
2023/12/08 03:56:46;;;;;;;14.90;7.90;;;;;3.60;97638.00;;;;5035554;28;20505;-63
2023/12/08 03:59:13;;;;;;;8.63;6.82;;;;;3.60;97639.00;;;;5035648;28;20041;-61
2023/12/08 04:01:39;;;;;;;10.60;6.93;;;;;3.60;97640.00;;;;5035361;28;20130;-60
2023/12/08 04:04:10;;;;;;;11.00;7.75;;;;;3.70;97633.00;;;;5034814;28;20045;-62
2023/12/08 04:06:50;;;;;;;10.70;7.70;;;;;3.60;97630.00;;;;5035269;28;20107;-61
2023/12/08 04:09:17;;;;;;;10.18;7.28;;;;;3.70;97628.00;;;;5035375;28;20132;-60
2023/12/08 04:11:43;;;;;;;11.52;7.57;;;;;3.70;97639.00;;;;5035421;28;20571;-63
2023/12/08 04:14:10;;;;;;;10.25;7.10;;;;;3.70;97637.00;;;;5034643;28;20465;-60
2023/12/08 04:16:37;;;;;;;11.00;7.72;;;;;3.70;97637.00;;;;5035455;28;20041;-61
2023/12/08 04:19:04;;;;;;;12.85;7.85;;;;;3.60;97638.00;;;;5035526;28;20077;-61
2023/12/08 04:21:30;;;;;;;11.88;7.68;;;;;3.60;97633.00;;;;5034552;28;20449;-62
2023/12/08 04:23:57;;;;;;;10.15;7.32;;;;;3.60;97635.00;;;;5034129;28;20041;-61
2023/12/08 04:26:27;;;;;;;10.43;6.97;;;;;3.50;97627.00;;;;5034534;28;20072;-61
2023/12/08 04:28:53;;;;;;;11.68;7.57;;;;;3.40;97635.00;;;;5034645;28;20088;-60
2023/12/08 04:31:20;;;;;;;12.07;7.53;;;;;3.50;97633.00;;;;5034423;28;20053;-61
2023/12/08 04:33:47;;;;;;;9.98;7.15;;;;;3.50;97641.00;;;;5033916;28;20069;-63
2023/12/08 04:36:15;;;;;;;11.02;7.78;;;;;3.60;97640.00;;;;5034631;28;20042;-60
2023/12/08 04:38:41;;;;;;;9.95;7.72;;;;;3.60;97647.00;;;;5035159;28;20049;-63
2023/12/08 04:41:08;;;;;;;10.60;7.20;;;;;3.50;97643.00;;;;5034696;28;20045;-63
2023/12/08 04:43:35;;;;;;;13.98;8.30;;;;;3.50;97636.00;;;;5033809;28;20223;-63
2023/12/08 04:46:01;;;;;;;17.20;11.32;;;;;3.50;97650.00;;;;5034092;28;20044;-63
2023/12/08 04:48:28;;;;;;;11.38;7.20;;;;;3.50;97645.00;;;;5034235;28;20083;-61
2023/12/08 04:50:55;;;;;;;13.88;8.00;;;;;3.60;97640.00;;;;5034275;28;20041;-61
2023/12/08 04:53:21;;;;;;;11.20;7.78;;;;;3.60;97655.00;;;;5034117;28;20052;-63
2023/12/08 04:55:48;;;;;;;13.90;7.63;;;;;3.70;97652.00;;;;5033921;28;20072;-60
2023/12/08 04:58:16;;;;;;;10.82;7.05;;;;;3.90;97654.00;;;;5032890;28;20051;-61
2023/12/08 05:00:43;;;;;;;13.40;8.18;;;;;3.90;97648.00;;;;5033929;28;20039;-61
2023/12/08 05:03:09;;;;;;;11.55;7.63;;;;;3.80;97648.00;;;;5033044;28;20465;-61
2023/12/08 05:05:38;;;;;;;13.80;8.30;;;;;3.60;97642.00;;;;5033332;28;20045;-61
2023/12/08 05:08:05;;;;;;;13.80;7.75;;;;;3.60;97657.00;;;;5034007;28;20107;-62
2023/12/08 05:10:32;;;;;;;15.07;7.88;;;;;3.70;97648.00;;;;5033766;28;20499;-61
2023/12/08 05:12:59;;;;;;;11.60;8.10;;;;;3.90;97655.00;;;;5033675;28;20045;-62
2023/12/08 05:15:25;;;;;;;14.52;8.25;;;;;4.00;97653.00;;;;5033015;28;20410;-61
2023/12/08 05:17:52;;;;;;;10.55;7.47;;;;;4.00;97651.00;;;;5033844;28;20121;-63
2023/12/08 05:20:19;;;;;;;12.63;7.68;;;;;3.90;97644.00;;;;5033710;28;20406;-61
2023/12/08 05:22:45;;;;;;;10.73;7.38;;;;;3.70;97631.00;;;;5033438;28;20479;-61
2023/12/08 05:25:12;;;;;;;10.65;7.03;;;;;3.70;97626.00;;;;5031564;28;20049;-61
2023/12/08 05:27:39;;;;;;;11.93;7.35;;;;;3.60;97616.00;;;;5032266;28;20055;-63
2023/12/08 05:30:06;;;;;;;11.85;6.75;;;;;3.60;97615.00;;;;5033349;28;20060;-63
2023/12/08 05:32:33;;;;;;;9.55;6.80;;;;;3.70;97627.00;;;;5033199;28;20120;-61
2023/12/08 05:35:00;;;;;;;13.43;7.50;;;;;3.80;97622.00;;;;5031544;28;20132;-61
2023/12/08 05:37:31;;;;;;;11.70;7.07;;;;;3.70;97632.00;;;;5033206;28;20564;-60
2023/12/08 05:39:58;;;;;;;11.95;7.47;;;;;3.80;97638.00;;;;5031953;28;20051;-61
2023/12/08 05:42:25;;;;;;;15.13;9.23;;;;;3.70;97638.00;;;;5031888;28;20049;-61
2023/12/08 05:44:52;;;;;;;11.85;6.88;;;;;3.70;97645.00;;;;5032605;28;20046;-60
2023/12/08 05:47:18;;;;;;;14.02;7.82;;;;;3.80;97661.00;;;;5033076;28;20453;-60
2023/12/08 05:49:45;;;;;;;8.55;6.78;;;;;4.10;97655.00;;;;5033140;28;20049;-62
2023/12/08 05:52:12;;;;;;;16.27;8.70;;;;;4.30;97656.00;;;;5031738;28;20418;-61
2023/12/08 05:54:38;;;;;;;14.55;8.95;;;;;4.40;97647.00;;;;5032344;28;20497;-61
2023/12/08 05:57:06;;;;;;;10.75;7.28;;;;;4.40;97642.00;;;;5033074;28;20044;-61
2023/12/08 05:59:32;;;;;;;8.75;6.28;;;;;4.30;97653.00;;;;5032932;28;20094;-60
2023/12/08 06:01:59;;;;;;;13.35;7.65;;;;;4.20;97656.00;;;;5032912;28;20041;-61
2023/12/08 06:04:26;;;;;;;13.38;8.13;;;;;4.20;97654.00;;;;5032322;28;20071;-61
2023/12/08 06:06:53;;;;;;;9.40;6.78;;;;;4.20;97666.00;;;;5032681;28;20125;-61
2023/12/08 06:09:20;;;;;;;9.45;7.15;;;;;4.30;97666.00;;;;5032821;28;20042;-63
2023/12/08 06:11:46;;;;;;;11.13;6.70;;;;;4.50;97671.00;;;;5032691;28;20073;-64
2023/12/08 06:14:13;;;;;;;8.95;6.20;;;;;4.50;97667.00;;;;5032125;28;20449;-64
2023/12/08 06:16:40;;;;;;;10.93;8.30;;;;;4.60;97665.00;;;;5032427;28;20091;-64
2023/12/08 06:19:06;;;;;;;13.95;7.97;;;;;4.70;97677.00;;;;5032495;28;20506;-64
2023/12/08 06:21:33;;;;;;;10.45;7.72;;;;;4.80;97675.00;;;;5032388;28;20041;-64
2023/12/08 06:24:00;;;;;;;11.70;7.38;;;;;4.70;97662.00;;;;5031989;28;20482;-62
2023/12/08 06:26:29;;;;;;;10.43;8.07;;;;;4.70;97667.00;;;;5031237;28;20107;-64
2023/12/08 06:28:56;;;;;;;15.57;8.35;;;;;4.70;97668.00;;;;5032791;28;20124;-64
2023/12/08 06:31:22;;;;;;;15.55;8.88;;;;;4.80;97667.00;;;;5032600;28;20043;-64
2023/12/08 06:33:49;;;;;;;15.43;9.63;;;;;4.90;97657.00;;;;5031727;28;20101;-65
2023/12/08 06:36:36;;;;;;;15.05;9.52;;;;;4.90;97654.00;;;;5032381;28;20049;-61
2023/12/08 06:39:03;;;;;;;15.45;9.02;;;;;4.90;97661.00;;;;5032491;28;20037;-64
2023/12/08 06:41:32;;;;;;;15.98;10.02;;;;;5.00;97656.00;;;;5032794;28;20045;-62
2023/12/08 06:43:58;;;;;;;16.25;9.90;;;;;5.00;97648.00;;;;5032071;28;20113;-62
2023/12/08 06:46:25;;;;;;;14.40;9.57;;;;;5.00;97659.00;;;;5032526;28;20073;-61
2023/12/08 06:48:51;;;;;;;15.10;10.00;;;;;5.00;97664.00;;;;5033533;28;20088;-61
2023/12/08 06:51:18;;;;;;;17.23;9.77;;;;;5.00;97667.00;;;;5033677;28;20041;-60
2023/12/08 06:53:45;;;;;;;14.10;10.25;;;;;5.00;97668.00;;;;5032733;28;20107;-62
2023/12/08 06:56:11;;;;;;;14.23;10.95;;;;;5.10;97666.00;;;;5033913;28;20037;-62
2023/12/08 06:58:38;;;;;;;15.77;10.45;;;;;5.00;97672.00;;;;5033560;28;20052;-61
2023/12/08 07:01:05;;;;;;;14.00;10.13;;;;;5.00;97676.00;;;;5033210;28;20533;-61
2023/12/08 07:03:32;;;;;;;15.65;10.90;;;;;5.00;97689.00;;;;5031138;28;20041;-62
2023/12/08 07:05:59;;;;;;;18.48;11.27;;;;;5.00;97679.00;;;;5032351;28;20041;-60
2023/12/08 07:08:26;;;;;;;15.57;10.93;;;;;5.00;97688.00;;;;5032608;28;20128;-61
2023/12/08 07:10:52;;;;;;;16.90;12.30;;;;;5.00;97691.00;;;;5032740;28;20095;-61
2023/12/08 07:13:19;;;;;;;16.77;12.40;;;;;4.90;97690.00;;;;5032459;28;20053;-64
2023/12/08 07:15:45;;;;;;;16.10;12.20;;;;;4.80;97687.00;;;;5031664;28;20050;-63
2023/12/08 07:18:12;;;;;;;18.30;12.32;;;;;4.80;97695.00;;;;5030753;28;20053;-62
2023/12/08 07:20:39;;;;;;;18.17;12.52;;;;;4.80;97706.00;;;;5031879;28;20355;-61
2023/12/08 07:23:06;;;;;;;18.90;12.20;;;;;4.80;97708.00;;;;5030418;28;20144;-62
2023/12/08 07:25:32;;;;;;;17.48;12.30;;;;;4.80;97706.00;;;;5033020;28;20095;-61
2023/12/08 07:28:00;;;;;;;16.73;11.80;;;;;4.80;97703.00;;;;5034613;28;20041;-62
2023/12/08 07:30:27;;;;;;;19.20;12.02;;;;;4.80;97708.00;;;;5018273;28;20049;-62
2023/12/08 07:32:54;;;;;;;16.67;12.52;;;;;4.80;97706.00;;;;5035548;28;20041;-61
2023/12/08 07:35:20;;;;;;;18.83;12.98;;;;;4.80;97694.00;;;;5035132;28;20092;-62
2023/12/08 07:37:49;;;;;;;20.00;12.82;;;;;4.80;97706.00;;;;5035650;28;20045;-62
2023/12/08 07:40:15;;;;;;;18.42;13.20;;;;;4.80;97709.00;;;;5035492;28;20046;-63
2023/12/08 07:42:45;;;;;;;17.88;12.77;;;;;4.90;97716.00;;;;5035430;28;20048;-61
2023/12/08 07:45:11;;;;;;;16.98;12.20;;;;;4.90;97706.00;;;;5034588;28;20120;-62
2023/12/08 07:47:38;;;;;;;21.00;13.35;;;;;4.90;97701.00;;;;5034198;28;20053;-61
2023/12/08 07:50:06;;;;;;;21.38;12.80;;;;;4.90;97697.00;;;;5035627;28;20041;-62
2023/12/08 07:52:33;;;;;;;17.63;11.70;;;;;5.00;97697.00;;;;5035559;28;20049;-62
2023/12/08 07:55:00;;;;;;;19.00;12.07;;;;;5.00;97695.00;;;;5034809;28;20092;-60
2023/12/08 07:57:28;;;;;;;17.60;12.27;;;;;5.00;97692.00;;;;5035310;28;20072;-63
2023/12/08 07:59:55;;;;;;;20.00;13.55;;;;;5.10;97693.00;;;;5035154;28;20098;-63
2023/12/08 08:02:21;;;;;;;18.58;13.32;;;;;5.10;97695.00;;;;5034972;28;20099;-61
2023/12/08 08:04:48;;;;;;;18.77;12.93;;;;;5.20;97696.00;;;;5033153;28;20041;-60
2023/12/08 08:07:15;;;;;;;19.55;12.63;;;;;5.20;97701.00;;;;5034828;28;20120;-60
2023/12/08 08:09:41;;;;;;;21.10;13.25;;;;;5.20;97704.00;;;;5034965;28;20133;-62
2023/12/08 08:12:09;;;;;;;20.58;12.77;;;;;5.30;97706.00;;;;5034751;28;20055;-61
2023/12/08 08:14:35;;;;;;;20.17;12.98;;;;;5.30;97713.00;;;;5034175;28;20446;-63
2023/12/08 08:17:02;;;;;;;19.38;12.15;;;;;5.30;97709.00;;;;5034641;28;20037;-60
2023/12/08 08:19:29;;;;;;;19.45;12.23;;;;;5.30;97723.00;;;;5034874;28;20041;-61
2023/12/08 08:21:55;;;;;;;19.35;11.73;;;;;5.30;97720.00;;;;5033323;28;20063;-62
2023/12/08 08:24:42;;;;;;;16.33;11.05;;;;;5.30;97720.00;;;;5033109;28;20049;-61
2023/12/08 08:27:09;;;;;;;13.82;10.35;;;;;5.40;97724.00;;;;5034446;28;20052;-61
2023/12/08 08:29:36;;;;;;;18.55;12.35;;;;;5.50;97722.00;;;;5034654;28;20071;-61
2023/12/08 08:32:02;;;;;;;15.45;10.60;;;;;5.60;97730.00;;;;5034450;28;20048;-62
2023/12/08 08:34:29;;;;;;;14.98;10.43;;;;;5.60;97735.00;;;;5032832;28;20045;-61
2023/12/08 08:36:56;;;;;;;14.07;9.68;;;;;5.70;97733.00;;;;5032802;28;20045;-63
2023/12/08 08:39:23;;;;;;;14.55;10.13;;;;;5.70;97737.00;;;;5034428;28;20042;-62
2023/12/08 08:41:50;;;;;;;16.23;11.88;;;;;5.60;97737.00;;;;5033013;28;20053;-62
2023/12/08 08:44:16;;;;;;;14.52;10.82;;;;;5.70;97733.00;;;;5033580;28;20049;-61
2023/12/08 08:46:44;;;;;;;13.63;10.35;;;;;5.70;97742.00;;;;5034168;28;20038;-62
2023/12/08 08:49:11;;;;;;;14.90;10.82;;;;;5.80;97729.00;;;;5034033;28;20042;-62
2023/12/08 08:51:40;;;;;;;19.02;12.77;;;;;5.80;97730.00;;;;5034119;28;20091;-61
2023/12/08 08:54:06;;;;;;;18.70;11.43;;;;;5.90;97722.00;;;;5033409;28;20042;-63
2023/12/08 08:56:33;;;;;;;16.33;11.57;;;;;6.00;97729.00;;;;5033917;28;20052;-62
2023/12/08 08:59:00;;;;;;;16.55;11.65;;;;;6.10;97737.00;;;;5034008;28;20414;-62
2023/12/08 09:01:26;;;;;;;18.27;11.52;;;;;6.20;97734.00;;;;5033964;28;20050;-61
2023/12/08 09:03:53;;;;;;;26.45;18.33;;;;;6.20;97732.00;;;;5034233;28;20418;-61
2023/12/08 09:06:20;;;;;;;27.80;19.08;;;;;6.30;97740.00;;;;5016082;28;20052;-61
2023/12/08 09:08:47;;;;;;;19.95;14.23;;;;;6.30;97737.00;;;;5033807;28;20041;-61
2023/12/08 09:11:14;;;;;;;16.92;11.07;;;;;6.40;97740.00;;;;5033875;28;20068;-64
2023/12/08 09:13:40;;;;;;;19.80;12.88;;;;;6.50;97746.00;;;;5033123;28;20059;-64
2023/12/08 09:16:08;;;;;;;17.88;11.77;;;;;6.40;97746.00;;;;5033724;28;20065;-64
2023/12/08 09:18:35;;;;;;;15.75;11.10;;;;;6.40;97749.00;;;;5033558;28;20044;-64
2023/12/08 09:21:05;;;;;;;15.85;10.55;;;;;6.40;97747.00;;;;5032411;28;20048;-64
2023/12/08 09:23:32;;;;;;;15.77;10.27;;;;;6.40;97755.00;;;;5031651;28;20048;-63
2023/12/08 09:25:59;;;;;;;12.13;9.10;;;;;6.40;97765.00;;;;5033415;28;20059;-63
2023/12/08 09:28:26;;;;;;;16.08;9.95;;;;;6.30;97767.00;;;;5033517;28;20052;-63
2023/12/08 09:30:53;;;;;;;14.27;9.82;;;;;6.30;97752.00;;;;5033609;28;20049;-63
2023/12/08 09:33:20;;;;;;;15.25;9.98;;;;;6.30;97751.00;;;;5033150;28;20133;-60
2023/12/08 09:35:50;;;;;;;11.98;9.48;;;;;6.30;97758.00;;;;5033259;28;20048;-63
2023/12/08 09:38:18;;;;;;;13.02;9.38;;;;;6.40;97758.00;;;;5033431;28;20037;-63
2023/12/08 09:40:57;;;;;;;12.02;8.65;;;;;6.40;97755.00;;;;5033273;28;20042;-63
2023/12/08 09:43:43;;;;;;;12.38;9.25;;;;;6.40;97762.00;;;;5031640;28;20679;-63
2023/12/08 09:46:10;;;;;;;17.38;10.02;;;;;6.40;97762.00;;;;5032999;28;20045;-62
2023/12/08 09:48:39;;;;;;;14.57;9.57;;;;;6.40;97773.00;;;;5032819;28;20077;-63
2023/12/08 09:51:07;;;;;;;14.23;9.60;;;;;6.40;97774.00;;;;5033122;28;20080;-63
2023/12/08 09:53:36;;;;;;;11.48;8.68;;;;;6.50;97766.00;;;;5032564;28;20038;-62
2023/12/08 09:56:03;;;;;;;13.32;9.77;;;;;6.60;97771.00;;;;5032992;28;20112;-63
2023/12/08 09:58:31;;;;;;;13.20;9.35;;;;;6.60;97766.00;;;;5031704;28;20050;-62
2023/12/08 10:00:59;;;;;;;12.40;9.15;;;;;6.60;97773.00;;;;5032944;28;20049;-61
2023/12/08 10:03:26;;;;;;;11.60;8.23;;;;;6.70;97768.00;;;;5032176;28;20049;-61
2023/12/08 10:05:55;;;;;;;12.93;8.63;;;;;6.70;97767.00;;;;5032702;28;20498;-61
2023/12/08 10:08:24;;;;;;;12.57;8.30;;;;;6.80;97760.00;;;;5031469;28;20048;-60
2023/12/08 10:10:51;;;;;;;12.77;9.15;;;;;6.80;97757.00;;;;5032781;28;20051;-61
2023/12/08 10:13:18;;;;;;;12.23;8.18;;;;;6.90;97755.00;;;;5031501;28;20546;-59
2023/12/08 10:15:44;;;;;;;10.80;7.97;;;;;6.90;97753.00;;;;5032018;28;20533;-63
2023/12/08 10:18:25;;;;;;;10.85;7.78;;;;;6.90;97748.00;;;;5032496;28;20042;-63
2023/12/08 10:21:13;;;;;;;12.95;8.88;;;;;7.00;97756.00;;;;5032502;28;20052;-64
2023/12/08 10:23:42;;;;;;;10.95;8.68;;;;;7.00;97750.00;;;;5031813;28;20107;-64
2023/12/08 10:26:12;;;;;;;8.93;7.05;;;;;6.90;97745.00;;;;5032275;28;20061;-63
2023/12/08 10:28:40;;;;;;;11.35;8.20;;;;;7.00;97735.00;;;;5032440;28;20050;-63
2023/12/08 10:31:07;;;;;;;11.70;8.25;;;;;7.00;97746.00;;;;5032367;28;20073;-64
2023/12/08 10:33:34;;;;;;;11.13;7.72;;;;;7.10;97741.00;;;;5030483;28;20145;-63
2023/12/08 10:36:00;;;;;;;9.73;7.82;;;;;7.10;97740.00;;;;5030919;28;20473;-63
2023/12/08 10:38:27;;;;;;;10.98;7.95;;;;;7.20;97742.00;;;;5032091;28;20045;-62
2023/12/08 10:40:54;;;;;;;9.57;6.80;;;;;7.20;97743.00;;;;5032189;28;20072;-63
2023/12/08 10:43:25;;;;;;;12.23;8.02;;;;;7.20;97744.00;;;;5032049;28;20073;-64
2023/12/08 10:45:53;;;;;;;11.75;8.23;;;;;7.20;97745.00;;;;5032039;28;20045;-64
2023/12/08 10:48:20;;;;;;;13.77;8.80;;;;;7.30;97743.00;;;;5014586;28;20041;-64
2023/12/08 10:50:49;;;;;;;10.82;7.78;;;;;7.30;97752.00;;;;5032136;28;20107;-64
2023/12/08 10:53:20;;;;;;;11.15;7.78;;;;;7.40;97760.00;;;;5030784;28;20045;-63
2023/12/08 10:56:00;;;;;;;12.25;7.15;;;;;7.50;97769.00;;;;5031569;28;20081;-64
2023/12/08 10:58:28;;;;;;;9.05;7.57;;;;;7.50;97767.00;;;;5030758;28;20410;-63
2023/12/08 11:00:56;;;;;;;9.77;7.43;;;;;7.50;97759.00;;;;5031401;28;20379;-64
2023/12/08 11:03:27;;;;;;;14.00;7.88;;;;;7.60;97775.00;;;;5031472;28;20120;-60
2023/12/08 11:06:09;;;;;;;15.18;10.90;;;;;7.60;97765.00;;;;5031847;28;20506;-64
2023/12/08 11:08:43;;;;;;;37.75;22.42;;;;;7.60;97770.00;;;;5031782;28;20095;-62
2023/12/08 11:11:11;;;;;;;;;;;;;7.70;97769.00;;;;5032786;28;20115;-62
2023/12/08 11:13:43;;;;;;;16.58;11.75;;;;;7.60;97769.00;;;;5031093;28;20008;-64
2023/12/08 11:16:39;;;;;;;14.85;10.10;;;;;7.70;97759.00;;;;5031715;28;20571;-64
2023/12/08 11:19:08;;;;;;;11.65;8.88;;;;;7.70;97768.00;;;;5031830;28;20041;-64
2023/12/08 11:21:35;;;;;;;12.23;8.68;;;;;7.80;97770.00;;;;5031597;28;20049;-63
2023/12/08 11:24:02;;;;;;;11.55;8.60;;;;;7.90;97768.00;;;;5031122;28;20487;-64
2023/12/08 11:26:55;;;;;;;14.35;9.80;;;;;8.00;97777.00;;;;5030502;28;20045;-63
2023/12/08 11:29:29;;;;;;;18.25;11.88;;;;;8.00;97775.00;;;;5031740;28;20045;-64
2023/12/08 11:32:17;;;;;;;17.98;11.18;;;;;8.00;97774.00;;;;5031560;28;20037;-63
2023/12/08 11:34:55;;;;;;;17.10;10.98;;;;;8.00;97772.00;;;;5031038;28;20046;-64
2023/12/08 11:37:22;;;;;;;14.35;10.32;;;;;8.00;97784.00;;;;5031416;28;20133;-64
2023/12/08 11:39:49;;;;;;;18.50;11.82;;;;;8.00;97784.00;;;;5030479;28;20046;-64
2023/12/08 11:42:20;;;;;;;16.38;10.50;;;;;8.10;97791.00;;;;5030483;28;20095;-63
2023/12/08 11:44:48;;;;;;;17.80;11.45;;;;;8.10;97794.00;;;;5031144;28;20671;-63
2023/12/08 11:47:25;;;;;;;15.68;11.50;;;;;8.10;97779.00;;;;5031733;28;20159;-63
2023/12/08 11:49:54;;;;;;;21.25;13.93;;;;;8.10;97778.00;;;;5031837;28;20049;-60
2023/12/08 11:52:29;;;;;;;20.23;13.27;;;;;8.20;97780.00;;;;5031575;28;20057;-63
2023/12/08 11:55:16;;;;;;;19.60;12.45;;;;;8.30;97772.00;;;;5031054;28;20065;-61
2023/12/08 11:58:03;;;;;;;19.15;11.80;;;;;8.30;97786.00;;;;5030465;28;20372;-62
2023/12/08 12:00:34;;;;;;;19.58;12.43;;;;;8.30;97790.00;;;;5031432;28;20103;-62
2023/12/08 12:03:02;;;;;;;19.80;11.77;;;;;8.30;97787.00;;;;5031556;28;20064;-62
2023/12/08 12:05:30;;;;;;;18.83;11.80;;;;;8.30;97788.00;;;;5030632;28;20041;-64
2023/12/08 12:07:57;;;;;;;18.23;12.27;;;;;8.20;97793.00;;;;5030209;28;20048;-63
2023/12/08 12:10:30;;;;;;;16.63;11.98;;;;;8.20;97795.00;;;;5031455;28;20041;-62
2023/12/08 12:13:00;;;;;;;18.23;12.48;;;;;8.30;97801.00;;;;5034926;28;20472;-64
2023/12/08 12:15:30;;;;;;;19.20;12.15;;;;;8.30;97798.00;;;;5034558;28;20417;-64
2023/12/08 12:17:58;;;;;;;19.52;13.00;;;;;8.30;97799.00;;;;5034801;28;20120;-63
2023/12/08 12:20:28;;;;;;;19.25;13.07;;;;;8.30;97799.00;;;;5034835;28;20065;-65